Wetterdaten: Woche 15.10.07 - 21.10.07 (KW42)
Datum Zeit Temperatur Luftfeuchte Luftdruck Niederschlag Wind Richtung Sonnenschein Solar Taupunkt Windchill Windben
15.10.2007 00:00 8.6 C 90 % 1023.5 hPa 0.0 l/m 0.8 km/h (0 Bft) N 0.00 h 0 W/m 7.0 C 8.6 C 2.6 km/h (1 Bft)
15.10.2007 01:00 8.4 C 91 % 1023.3 hPa 0.0 l/m 0.6 km/h (0 Bft) N-NO 0.00 h 0 W/m 7.1 C 8.4 C 2.0 km/h (1 Bft)
15.10.2007 02:00 8.2 C 93 % 1023.2 hPa 0.0 l/m 0.4 km/h (0 Bft) N-NO 0.00 h 0 W/m 7.1 C 8.2 C 1.5 km/h (1 Bft)
15.10.2007 03:00 8.2 C 95 % 1022.8 hPa 0.0 l/m 0.1 km/h (0 Bft) NO 0.00 h 0 W/m 7.4 C 8.2 C 0.6 km/h (0 Bft)
15.10.2007 04:00 7.8 C 96 % 1022.6 hPa 0.0 l/m 0.5 km/h (0 Bft) NO 0.00 h 0 W/m 7.3 C 7.8 C 1.9 km/h (1 Bft)
15.10.2007 05:00 7.3 C 98 % 1022.8 hPa 0.0 l/m 0.2 km/h (0 Bft) NW 0.00 h 0 W/m 7.0 C 7.3 C 0.9 km/h (0 Bft)
15.10.2007 06:00 7.6 C 99 % 1022.7 hPa 0.0 l/m 0.0 km/h (0 Bft) N 0.00 h 0 W/m 7.5 C 7.6 C 0.0 km/h (0 Bft)
15.10.2007 07:00 7.8 C 100 % 1022.8 hPa 0.0 l/m 0.2 km/h (0 Bft) NW 0.00 h 0 W/m 7.8 C 7.8 C 0.7 km/h (0 Bft)
15.10.2007 08:00 8.4 C 100 % 1023.0 hPa 0.0 l/m 0.3 km/h (0 Bft) S-SW 0.00 h 12 W/m 8.4 C 8.4 C 1.2 km/h (1 Bft)
15.10.2007 09:00 8.8 C 100 % 1023.1 hPa 0.0 l/m 0.7 km/h (0 Bft) S-SO 0.00 h 33 W/m 8.8 C 8.8 C 2.3 km/h (1 Bft)
15.10.2007 10:00 9.3 C 97 % 1023.3 hPa 0.0 l/m 0.4 km/h (0 Bft) S-SO 0.00 h 69 W/m 8.9 C 9.3 C 1.7 km/h (1 Bft)
15.10.2007 11:00 10.1 C 92 % 1023.1 hPa 0.0 l/m 1.0 km/h (0 Bft) S-SO 0.00 h 115 W/m 8.9 C 10.1 C 3.2 km/h (1 Bft)
15.10.2007 12:00 11.3 C 87 % 1022.8 hPa 0.0 l/m 1.6 km/h (1 Bft) S-SO 0.32 h 255 W/m 9.2 C 11.3 C 3.3 km/h (1 Bft)
15.10.2007 13:00 13.6 C 80 % 1022.0 hPa 0.0 l/m 2.0 km/h (1 Bft) O-SO 1.00 h 491 W/m 10.2 C 13.6 C 4.1 km/h (1 Bft)
15.10.2007 14:00 15.1 C 76 % 1021.3 hPa 0.0 l/m 2.6 km/h (1 Bft) NW 1.00 h 460 W/m 10.8 C 15.1 C 4.8 km/h (1 Bft)
15.10.2007 15:00 16.5 C 72 % 1020.7 hPa 0.0 l/m 2.0 km/h (1 Bft) W 1.00 h 374 W/m 11.5 C 16.5 C 3.9 km/h (1 Bft)
15.10.2007 16:00 16.8 C 69 % 1020.3 hPa 0.0 l/m 2.1 km/h (1 Bft) S 1.00 h 257 W/m 11.0 C 16.8 C 4.6 km/h (1 Bft)
15.10.2007 17:00 16.3 C 70 % 1019.9 hPa 0.0 l/m 1.6 km/h (1 Bft) S-SO 0.80 h 113 W/m 10.8 C 16.3 C 3.9 km/h (1 Bft)
15.10.2007 18:00 14.4 C 76 % 1020.0 hPa 0.0 l/m 3.5 km/h (1 Bft) SO 0.02 h 20 W/m 10.3 C 14.4 C 4.8 km/h (1 Bft)
15.10.2007 19:00 12.1 C 87 % 1020.5 hPa 0.0 l/m 0.2 km/h (0 Bft) SO 0.00 h 0 W/m 10.0 C 12.1 C 0.3 km/h (0 Bft)
15.10.2007 20:00 10.6 C 91 % 1020.9 hPa 0.0 l/m 0.9 km/h (0 Bft) SO 0.00 h 0 W/m 9.2 C 10.6 C 1.8 km/h (1 Bft)
15.10.2007 21:00 9.6 C 95 % 1021.4 hPa 0.0 l/m 0.1 km/h (0 Bft) SO 0.00 h 0 W/m 8.7 C 9.6 C 0.3 km/h (0 Bft)
15.10.2007 22:00 9.0 C 97 % 1021.7 hPa 0.0 l/m 0.1 km/h (0 Bft) SO 0.00 h 0 W/m 8.6 C 9.0 C 0.4 km/h (0 Bft)
15.10.2007 23:00 8.7 C 98 % 1022.2 hPa 0.0 l/m 0.0 km/h (0 Bft) N 0.00 h 0 W/m 8.4 C 8.7 C 0.1 km/h (0 Bft)
16.10.2007 00:00 8.5 C 100 % 1022.4 hPa 0.0 l/m 0.0 km/h (0 Bft) N 0.00 h 0 W/m 8.5 C 8.5 C 0.2 km/h (0 Bft)
16.10.2007 01:00 8.5 C 100 % 1022.5 hPa 0.2 l/m 0.0 km/h (0 Bft) N 0.00 h 0 W/m 8.5 C 8.5 C 0.0 km/h (0 Bft)
16.10.2007 02:00 8.7 C 100 % 1022.4 hPa 0.0 l/m 0.0 km/h (0 Bft) N 0.00 h 0 W/m 8.7 C 8.7 C 0.1 km/h (0 Bft)
16.10.2007 03:00 8.7 C 100 % 1022.2 hPa 0.0 l/m 0.0 km/h (0 Bft) N 0.00 h 0 W/m 8.7 C 8.7 C 0.4 km/h (0 Bft)
16.10.2007 04:00 8.4 C 100 % 1022.1 hPa 0.0 l/m 0.0 km/h (0 Bft) N 0.00 h 0 W/m 8.4 C 8.4 C 0.0 km/h (0 Bft)
16.10.2007 05:00 8.5 C 100 % 1022.4 hPa 0.0 l/m 0.0 km/h (0 Bft) N 0.00 h 0 W/m 8.5 C 8.5 C 0.0 km/h (0 Bft)
16.10.2007 06:00 8.8 C 100 % 1022.7 hPa 0.0 l/m 0.4 km/h (0 Bft) SO 0.00 h 0 W/m 8.8 C 8.8 C 1.3 km/h (1 Bft)
16.10.2007 07:00 8.8 C 100 % 1022.8 hPa 0.0 l/m 1.8 km/h (1 Bft) O-SO 0.00 h 5 W/m 8.8 C 8.8 C 3.3 km/h (1 Bft)
16.10.2007 08:00 8.9 C 100 % 1023.4 hPa 0.0 l/m 0.5 km/h (0 Bft) O-SO 0.00 h 20 W/m 8.9 C 8.9 C 1.2 km/h (1 Bft)
16.10.2007 09:00 9.3 C 100 % 1023.9 hPa 0.0 l/m 3.0 km/h (1 Bft) O-SO 0.00 h 58 W/m 9.3 C 9.2 C 4.4 km/h (1 Bft)
16.10.2007 10:00 9.6 C 100 % 1024.1 hPa 0.0 l/m 1.9 km/h (1 Bft) O-SO 0.00 h 98 W/m 9.6 C 9.6 C 3.2 km/h (1 Bft)
16.10.2007 11:00 10.5 C 99 % 1024.0 hPa 0.0 l/m 0.5 km/h (0 Bft) SO 0.00 h 127 W/m 10.4 C 10.5 C 1.4 km/h (1 Bft)
16.10.2007 12:00 11.8 C 92 % 1024.0 hPa 0.0 l/m 0.9 km/h (0 Bft) SW 0.23 h 245 W/m 10.4 C 11.8 C 2.2 km/h (1 Bft)
16.10.2007 13:00 13.8 C 83 % 1023.0 hPa 0.0 l/m 2.0 km/h (1 Bft) W-NW 1.00 h 452 W/m 10.9 C 13.8 C 4.0 km/h (1 Bft)
16.10.2007 14:00 15.7 C 77 % 1022.0 hPa 0.0 l/m 2.3 km/h (1 Bft) W-NW 1.00 h 448 W/m 11.8 C 15.7 C 4.2 km/h (1 Bft)
16.10.2007 15:00 17.9 C 71 % 1021.4 hPa 0.0 l/m 1.4 km/h (1 Bft) W 1.00 h 369 W/m 12.6 C 17.9 C 3.0 km/h (1 Bft)
16.10.2007 16:00 18.9 C 63 % 1020.8 hPa 0.0 l/m 1.1 km/h (0 Bft) W-SW 1.00 h 252 W/m 11.8 C 18.9 C 3.1 km/h (1 Bft)
16.10.2007 17:00 18.2 C 63 % 1020.6 hPa 0.0 l/m 1.2 km/h (1 Bft) S-SO 0.83 h 109 W/m 11.0 C 18.2 C 3.4 km/h (1 Bft)
16.10.2007 18:00 15.6 C 76 % 1020.8 hPa 0.0 l/m 0.4 km/h (0 Bft) S-SO 0.00 h 13 W/m 11.3 C 15.6 C 1.2 km/h (1 Bft)
16.10.2007 19:00 12.8 C 86 % 1021.2 hPa 0.0 l/m 1.5 km/h (1 Bft) O-SO 0.00 h 0 W/m 10.5 C 12.8 C 2.6 km/h (1 Bft)
16.10.2007 20:00 10.8 C 91 % 1021.3 hPa 0.0 l/m 1.2 km/h (1 Bft) O-SO 0.00 h 0 W/m 9.4 C 10.8 C 2.0 km/h (1 Bft)
16.10.2007 21:00 9.8 C 95 % 1022.0 hPa 0.0 l/m 3.4 km/h (1 Bft) O-SO 0.00 h 0 W/m 9.0 C 9.6 C 4.4 km/h (1 Bft)
16.10.2007 22:00 9.4 C 97 % 1022.6 hPa 0.0 l/m 3.6 km/h (1 Bft) SO 0.00 h 0 W/m 9.0 C 9.3 C 5.2 km/h (1 Bft)
16.10.2007 23:00 8.6 C 97 % 1022.7 hPa 0.0 l/m 0.4 km/h (0 Bft) SO 0.00 h 0 W/m 8.2 C 8.6 C 0.9 km/h (0 Bft)
17.10.2007 00:00 8.0 C 99 % 1022.8 hPa 0.0 l/m 0.9 km/h (0 Bft) O-SO 0.00 h 0 W/m 7.8 C 8.0 C 1.6 km/h (1 Bft)
17.10.2007 01:00 7.7 C 99 % 1022.7 hPa 0.0 l/m 0.3 km/h (0 Bft) O-SO 0.00 h 0 W/m 7.6 C 7.7 C 0.5 km/h (0 Bft)
17.10.2007 02:00 7.4 C 100 % 1022.5 hPa 0.0 l/m 0.1 km/h (0 Bft) O-SO 0.00 h 0 W/m 7.4 C 7.4 C 0.3 km/h (0 Bft)
17.10.2007 03:00 7.9 C 100 % 1022.4 hPa 0.0 l/m 0.0 km/h (0 Bft) O-SO 0.00 h 0 W/m 7.9 C 7.9 C 0.3 km/h (0 Bft)
17.10.2007 04:00 8.0 C 100 % 1022.3 hPa 0.0 l/m 0.1 km/h (0 Bft) O-SO 0.00 h 0 W/m 8.0 C 8.0 C 0.3 km/h (0 Bft)
17.10.2007 05:00 8.0 C 100 % 1021.9 hPa 0.0 l/m 0.1 km/h (0 Bft) O-SO 0.00 h 0 W/m 8.0 C 8.0 C 0.5 km/h (0 Bft)
17.10.2007 06:00 8.4 C 100 % 1022.1 hPa 0.0 l/m 0.0 km/h (0 Bft) N 0.00 h 0 W/m 8.4 C 8.4 C 0.0 km/h (0 Bft)
17.10.2007 07:00 8.7 C 100 % 1022.0 hPa 0.0 l/m 0.0 km/h (0 Bft) N 0.00 h 5 W/m 8.7 C 8.7 C 0.0 km/h (0 Bft)
17.10.2007 08:00 8.9 C 100 % 1022.3 hPa 0.0 l/m 0.0 km/h (0 Bft) N 0.00 h 18 W/m 8.9 C 8.9 C 0.1 km/h (0 Bft)
17.10.2007 09:00 9.4 C 100 % 1022.5 hPa 0.0 l/m 0.2 km/h (0 Bft) O-SO 0.00 h 49 W/m 9.4 C 9.4 C 0.7 km/h (0 Bft)
17.10.2007 10:00 10.9 C 98 % 1022.7 hPa 0.0 l/m 0.3 km/h (0 Bft) O-SO 0.78 h 254 W/m 10.6 C 10.9 C 1.6 km/h (1 Bft)
17.10.2007 11:00 14.0 C 81 % 1022.2 hPa 0.0 l/m 2.4 km/h (1 Bft) S-SO 1.00 h 386 W/m 10.7 C 14.0 C 5.7 km/h (1 Bft)
17.10.2007 12:00 16.0 C 73 % 1021.7 hPa 0.0 l/m 5.7 km/h (1 Bft) S-SO 1.00 h 458 W/m 11.1 C 16.0 C 10.4 km/h (2 Bft)
17.10.2007 13:00 17.8 C 67 % 1020.7 hPa 0.0 l/m 4.1 km/h (1 Bft) S-SO 1.00 h 479 W/m 11.7 C 17.8 C 9.1 km/h (2 Bft)
17.10.2007 14:00 19.0 C 63 % 1019.8 hPa 0.0 l/m 4.1 km/h (1 Bft) S-SO 1.00 h 433 W/m 11.8 C 19.0 C 7.4 km/h (2 Bft)
17.10.2007 15:00 19.5 C 59 % 1019.2 hPa 0.0 l/m 2.8 km/h (1 Bft) S-SO 1.00 h 313 W/m 11.3 C 19.5 C 6.1 km/h (2 Bft)
17.10.2007 16:00 19.5 C 58 % 1018.7 hPa 0.0 l/m 2.6 km/h (1 Bft) S-SO 0.97 h 216 W/m 11.1 C 19.5 C 5.4 km/h (1 Bft)
17.10.2007 17:00 18.5 C 62 % 1018.5 hPa 0.0 l/m 2.2 km/h (1 Bft) S-SO 0.37 h 79 W/m 11.0 C 18.5 C 4.8 km/h (1 Bft)
17.10.2007 18:00 17.3 C 65 % 1018.6 hPa 0.0 l/m 4.4 km/h (1 Bft) S-SO 0.12 h 21 W/m 10.6 C 17.3 C 7.0 km/h (2 Bft)
17.10.2007 19:00 16.2 C 71 % 1018.9 hPa 0.0 l/m 1.1 km/h (1 Bft) S-SO 0.00 h 0 W/m 11.0 C 16.2 C 2.1 km/h (1 Bft)
17.10.2007 20:00 15.5 C 76 % 1019.1 hPa 0.0 l/m 5.3 km/h (1 Bft) S-SO 0.00 h 0 W/m 11.2 C 15.5 C 8.4 km/h (2 Bft)
17.10.2007 21:00 15.6 C 79 % 1019.6 hPa 0.0 l/m 17.1 km/h (3 Bft) W 0.00 h 0 W/m 12.0 C 15.6 C 24.8 km/h (4 Bft)
17.10.2007 22:00 14.3 C 88 % 1020.1 hPa 0.2 l/m 13.6 km/h (3 Bft) W 0.00 h 0 W/m 12.4 C 14.3 C 20.6 km/h (4 Bft)
17.10.2007 23:00 13.8 C 89 % 1020.5 hPa 0.0 l/m 12.8 km/h (3 Bft) W 0.00 h 0 W/m 11.9 C 13.8 C 18.9 km/h (3 Bft)
18.10.2007 00:00 13.3 C 88 % 1020.5 hPa 0.0 l/m 11.1 km/h (2 Bft) W 0.00 h 0 W/m 11.3 C 13.3 C 17.1 km/h (3 Bft)
18.10.2007 01:00 12.5 C 88 % 1020.6 hPa 0.0 l/m 7.3 km/h (2 Bft) W 0.00 h 0 W/m 10.6 C 12.5 C 11.2 km/h (2 Bft)
18.10.2007 02:00 12.3 C 88 % 1020.9 hPa 0.0 l/m 9.3 km/h (2 Bft) W 0.00 h 0 W/m 10.3 C 12.3 C 15.0 km/h (3 Bft)
18.10.2007 03:00 11.8 C 89 % 1021.0 hPa 0.0 l/m 6.3 km/h (2 Bft) W-NW 0.00 h 0 W/m 10.0 C 11.8 C 9.7 km/h (2 Bft)
18.10.2007 04:00 11.8 C 88 % 1021.3 hPa 0.0 l/m 7.3 km/h (2 Bft) W 0.00 h 0 W/m 9.8 C 11.8 C 12.0 km/h (2 Bft)
18.10.2007 05:00 10.6 C 73 % 1022.5 hPa 0.0 l/m 4.9 km/h (1 Bft) N 0.00 h 0 W/m 6.0 C 10.6 C 9.3 km/h (2 Bft)
18.10.2007 06:00 10.2 C 76 % 1023.2 hPa 0.0 l/m 1.2 km/h (1 Bft) N-NW 0.00 h 0 W/m 6.1 C 10.2 C 2.8 km/h (1 Bft)
18.10.2007 07:00 10.1 C 74 % 1024.1 hPa 0.0 l/m 0.4 km/h (0 Bft) NO 0.00 h 0 W/m 5.7 C 10.1 C 1.7 km/h (1 Bft)
18.10.2007 08:00 9.6 C 81 % 1025.2 hPa 0.0 l/m 1.1 km/h (1 Bft) W-SW 0.00 h 37 W/m 6.6 C 9.6 C 2.5 km/h (1 Bft)
18.10.2007 09:00 9.9 C 79 % 1026.4 hPa 0.0 l/m 3.5 km/h (1 Bft) W-NW 0.13 h 101 W/m 6.3 C 9.7 C 5.5 km/h (1 Bft)
18.10.2007 10:00 11.1 C 65 % 1027.1 hPa 0.0 l/m 4.0 km/h (1 Bft) NW 0.45 h 239 W/m 4.8 C 11.1 C 6.6 km/h (2 Bft)
18.10.2007 11:00 11.8 C 58 % 1027.7 hPa 0.0 l/m 4.1 km/h (1 Bft) N-NW 0.40 h 302 W/m 3.9 C 11.8 C 6.9 km/h (2 Bft)
18.10.2007 12:00 11.9 C 54 % 1028.2 hPa 0.0 l/m 3.9 km/h (1 Bft) N-NW 0.13 h 234 W/m 2.7 C 11.9 C 6.8 km/h (2 Bft)
18.10.2007 13:00 11.9 C 54 % 1028.3 hPa 0.0 l/m 5.9 km/h (2 Bft) N 0.02 h 198 W/m 2.8 C 11.9 C 9.5 km/h (2 Bft)
18.10.2007 14:00 12.3 C 53 % 1028.2 hPa 0.0 l/m 5.0 km/h (1 Bft) W-NW 0.23 h 235 W/m 3.1 C 12.3 C 7.9 km/h (2 Bft)
18.10.2007 15:00 12.3 C 53 % 1028.4 hPa 0.0 l/m 3.9 km/h (1 Bft) N-NW 0.28 h 214 W/m 3.1 C 12.3 C 6.3 km/h (2 Bft)
18.10.2007 16:00 12.4 C 52 % 1028.7 hPa 0.0 l/m 6.2 km/h (2 Bft) W 0.30 h 154 W/m 2.9 C 12.4 C 9.3 km/h (2 Bft)
18.10.2007 17:00 11.6 C 55 % 1029.1 hPa 0.0 l/m 1.9 km/h (1 Bft) N-NW 0.37 h 75 W/m 3.0 C 11.6 C 3.8 km/h (1 Bft)
18.10.2007 18:00 10.5 C 58 % 1029.6 hPa 0.0 l/m 3.4 km/h (1 Bft) N 0.02 h 16 W/m 2.6 C 10.5 C 6.4 km/h (2 Bft)
18.10.2007 19:00 9.1 C 66 % 1030.3 hPa 0.0 l/m 1.0 km/h (0 Bft) NW 0.00 h 0 W/m 3.1 C 9.1 C 2.7 km/h (1 Bft)
18.10.2007 20:00 7.9 C 75 % 1030.8 hPa 0.0 l/m 0.7 km/h (0 Bft) SO 0.00 h 0 W/m 3.7 C 7.9 C 1.6 km/h (1 Bft)
18.10.2007 21:00 6.8 C 79 % 1031.5 hPa 0.0 l/m 1.9 km/h (1 Bft) O 0.00 h 0 W/m 3.4 C 6.7 C 3.2 km/h (1 Bft)
18.10.2007 22:00 5.3 C 85 % 1031.9 hPa 0.0 l/m 3.5 km/h (1 Bft) O-SO 0.00 h 0 W/m 2.9 C 5.0 C 4.8 km/h (1 Bft)
18.10.2007 23:00 5.0 C 87 % 1032.0 hPa 0.0 l/m 2.3 km/h (1 Bft) O-SO 0.00 h 0 W/m 3.0 C 5.0 C 3.6 km/h (1 Bft)
19.10.2007 00:00 4.3 C 89 % 1032.0 hPa 0.0 l/m 2.0 km/h (1 Bft) SO 0.00 h 0 W/m 2.6 C 4.1 C 3.3 km/h (1 Bft)
19.10.2007 01:00 3.7 C 91 % 1032.0 hPa 0.0 l/m 1.0 km/h (0 Bft) O-SO 0.00 h 0 W/m 2.4 C 3.7 C 1.7 km/h (1 Bft)
19.10.2007 02:00 3.1 C 93 % 1032.1 hPa 0.0 l/m 1.3 km/h (1 Bft) O-SO 0.00 h 0 W/m 2.2 C 3.1 C 2.3 km/h (1 Bft)
19.10.2007 03:00 3.6 C 93 % 1031.7 hPa 0.0 l/m 0.5 km/h (0 Bft) O-SO 0.00 h 0 W/m 2.6 C 3.6 C 1.4 km/h (1 Bft)
19.10.2007 04:00 2.9 C 94 % 1031.5 hPa 0.0 l/m 0.8 km/h (0 Bft) O-SO 0.00 h 0 W/m 2.0 C 2.9 C 1.8 km/h (1 Bft)
19.10.2007 05:00 2.6 C 95 % 1031.4 hPa 0.0 l/m 0.7 km/h (0 Bft) SO 0.00 h 0 W/m 1.9 C 2.6 C 1.1 km/h (1 Bft)
19.10.2007 06:00 2.4 C 96 % 1031.6 hPa 0.0 l/m 0.1 km/h (0 Bft) SO 0.00 h 0 W/m 1.8 C 2.4 C 0.8 km/h (0 Bft)
19.10.2007 07:00 2.0 C 96 % 1031.8 hPa 0.0 l/m 0.1 km/h (0 Bft) SO 0.00 h 5 W/m 1.5 C 2.0 C 0.7 km/h (0 Bft)
19.10.2007 08:00 2.6 C 97 % 1032.0 hPa 0.2 l/m 0.8 km/h (0 Bft) NW 0.10 h 38 W/m 2.2 C 2.6 C 2.0 km/h (1 Bft)
19.10.2007 09:00 3.9 C 93 % 1032.2 hPa 0.0 l/m 2.2 km/h (1 Bft) N 0.52 h 136 W/m 2.8 C 3.7 C 4.0 km/h (1 Bft)
19.10.2007 10:00 4.8 C 89 % 1032.3 hPa 0.0 l/m 0.2 km/h (0 Bft) N 0.07 h 116 W/m 3.2 C 4.8 C 1.0 km/h (0 Bft)
19.10.2007 11:00 6.8 C 77 % 1032.3 hPa 0.0 l/m 1.9 km/h (1 Bft) S-SO 0.22 h 233 W/m 2.9 C 6.7 C 4.5 km/h (1 Bft)
19.10.2007 12:00 9.5 C 52 % 1031.7 hPa 0.0 l/m 4.7 km/h (1 Bft) N 0.58 h 305 W/m 0.1 C 9.1 C 9.0 km/h (2 Bft)
19.10.2007 13:00 9.6 C 50 % 1031.4 hPa 0.0 l/m 3.8 km/h (1 Bft) N 0.00 h 253 W/m -0.2 C 9.3 C 7.1 km/h (2 Bft)
19.10.2007 14:00 9.3 C 50 % 1031.0 hPa 0.0 l/m 2.2 km/h (1 Bft) N-NW 0.02 h 193 W/m -0.6 C 9.2 C 5.3 km/h (1 Bft)
19.10.2007 15:00 9.8 C 47 % 1030.7 hPa 0.0 l/m 2.5 km/h (1 Bft) NW 0.52 h 251 W/m -0.9 C 9.8 C 5.4 km/h (1 Bft)
19.10.2007 16:00 10.5 C 46 % 1030.4 hPa 0.0 l/m 3.3 km/h (1 Bft) W 0.52 h 215 W/m -0.7 C 10.5 C 5.3 km/h (1 Bft)
19.10.2007 17:00 9.0 C 49 % 1030.6 hPa 0.0 l/m 0.4 km/h (0 Bft) O 0.00 h 32 W/m -1.2 C 9.0 C 1.7 km/h (1 Bft)
19.10.2007 18:00 8.3 C 56 % 1030.8 hPa 0.0 l/m 0.3 km/h (0 Bft) O-NO 0.00 h 8 W/m 0.1 C 8.3 C 1.5 km/h (1 Bft)
19.10.2007 19:00 7.4 C 64 % 1031.3 hPa 0.0 l/m 1.2 km/h (1 Bft) N 0.00 h 0 W/m 1.0 C 7.4 C 3.0 km/h (1 Bft)
19.10.2007 20:00 7.2 C 64 % 1031.6 hPa 0.0 l/m 1.0 km/h (0 Bft) NO 0.00 h 0 W/m 0.9 C 7.2 C 2.9 km/h (1 Bft)
19.10.2007 21:00 5.8 C 72 % 1031.4 hPa 0.0 l/m 1.5 km/h (1 Bft) O 0.00 h 0 W/m 1.3 C 5.7 C 2.6 km/h (1 Bft)
19.10.2007 22:00 5.1 C 75 % 1031.3 hPa 0.0 l/m 2.3 km/h (1 Bft) O 0.00 h 0 W/m 1.0 C 4.9 C 3.3 km/h (1 Bft)
19.10.2007 23:00 5.1 C 79 % 1030.7 hPa 0.0 l/m 3.7 km/h (1 Bft) O-SO 0.00 h 0 W/m 1.7 C 4.7 C 5.9 km/h (2 Bft)
20.10.2007 00:00 5.5 C 80 % 1030.6 hPa 0.0 l/m 1.0 km/h (0 Bft) O 0.00 h 0 W/m 2.4 C 5.5 C 2.6 km/h (1 Bft)
20.10.2007 01:00 4.8 C 81 % 1030.7 hPa 0.0 l/m 1.5 km/h (1 Bft) NO 0.00 h 0 W/m 1.9 C 4.8 C 3.6 km/h (1 Bft)
20.10.2007 02:00 4.1 C 85 % 1030.5 hPa 0.0 l/m 0.8 km/h (0 Bft) O-SO 0.00 h 0 W/m 1.8 C 4.1 C 2.0 km/h (1 Bft)
20.10.2007 03:00 3.2 C 88 % 1030.4 hPa 0.0 l/m 0.9 km/h (0 Bft) O-SO 0.00 h 0 W/m 1.4 C 3.2 C 1.8 km/h (1 Bft)
20.10.2007 04:00 2.9 C 87 % 1030.1 hPa 0.0 l/m 0.9 km/h (0 Bft) N-NO 0.00 h 0 W/m 1.0 C 2.9 C 2.8 km/h (1 Bft)
20.10.2007 05:00 3.8 C 83 % 1030.2 hPa 0.0 l/m 0.7 km/h (0 Bft) NO 0.00 h 0 W/m 1.3 C 3.8 C 2.3 km/h (1 Bft)
20.10.2007 06:00 3.5 C 83 % 1031.0 hPa 0.0 l/m 1.8 km/h (1 Bft) O 0.00 h 0 W/m 0.9 C 3.4 C 3.9 km/h (1 Bft)
20.10.2007 07:00 2.8 C 82 % 1031.4 hPa 0.0 l/m 1.2 km/h (1 Bft) O 0.00 h 5 W/m 0.1 C 2.8 C 3.1 km/h (1 Bft)
20.10.2007 08:00 2.8 C 82 % 1032.2 hPa 0.0 l/m 0.8 km/h (0 Bft) O 0.05 h 30 W/m 0.1 C 2.8 C 2.7 km/h (1 Bft)
20.10.2007 09:00 4.1 C 76 % 1032.8 hPa 0.0 l/m 4.0 km/h (1 Bft) NO 0.65 h 178 W/m 0.2 C 3.5 C 8.4 km/h (2 Bft)
20.10.2007 10:00 5.1 C 65 % 1033.2 hPa 0.0 l/m 6.9 km/h (2 Bft) N 0.87 h 314 W/m -0.9 C 3.7 C 14.2 km/h (3 Bft)
20.10.2007 11:00 5.6 C 60 % 1033.5 hPa 0.0 l/m 6.8 km/h (2 Bft) O-SO 0.10 h 206 W/m -1.6 C 4.3 C 13.5 km/h (3 Bft)
20.10.2007 12:00 6.4 C 57 % 1033.7 hPa 0.0 l/m 6.6 km/h (2 Bft) NO 0.68 h 418 W/m -1.4 C 5.3 C 13.1 km/h (3 Bft)
20.10.2007 13:00 6.7 C 52 % 1033.7 hPa 0.0 l/m 6.7 km/h (2 Bft) O-SO 0.63 h 451 W/m -2.4 C 5.6 C 13.2 km/h (3 Bft)
20.10.2007 14:00 6.9 C 50 % 1033.2 hPa 0.0 l/m 6.7 km/h (2 Bft) N-NO 0.37 h 287 W/m -2.7 C 5.8 C 13.4 km/h (3 Bft)
20.10.2007 15:00 6.9 C 51 % 1033.0 hPa 0.0 l/m 6.1 km/h (2 Bft) N 0.32 h 199 W/m -2.6 C 6.0 C 12.5 km/h (3 Bft)
20.10.2007 16:00 6.5 C 52 % 1032.9 hPa 0.0 l/m 5.0 km/h (1 Bft) O-SO 0.07 h 95 W/m -2.6 C 5.9 C 10.1 km/h (2 Bft)
20.10.2007 17:00 6.3 C 52 % 1033.1 hPa 0.0 l/m 5.0 km/h (1 Bft) O-SO 0.57 h 86 W/m -2.8 C 5.5 C 10.3 km/h (2 Bft)
20.10.2007 18:00 5.7 C 55 % 1033.3 hPa 0.0 l/m 3.6 km/h (1 Bft) O-NO 0.10 h 17 W/m -2.6 C 5.3 C 7.9 km/h (2 Bft)
20.10.2007 19:00 4.7 C 60 % 1033.8 hPa 0.0 l/m 2.3 km/h (1 Bft) O-SO 0.00 h 0 W/m -2.4 C 4.5 C 4.9 km/h (1 Bft)
20.10.2007 20:00 3.4 C 66 % 1033.9 hPa 0.0 l/m 1.2 km/h (1 Bft) O-NO 0.00 h 0 W/m -2.4 C 3.4 C 2.9 km/h (1 Bft)
20.10.2007 21:00 1.9 C 74 % 1034.0 hPa 0.0 l/m 1.6 km/h (1 Bft) O 0.00 h 0 W/m -2.3 C 1.8 C 3.1 km/h (1 Bft)
20.10.2007 22:00 0.8 C 80 % 1033.9 hPa 0.0 l/m 2.9 km/h (1 Bft) O-SO 0.00 h 0 W/m -2.2 C 0.5 C 4.0 km/h (1 Bft)
20.10.2007 23:00 0.2 C 84 % 1033.6 hPa 0.0 l/m 3.2 km/h (1 Bft) O-SO 0.00 h 0 W/m -2.2 C -0.4 C 4.4 km/h (1 Bft)
21.10.2007 00:00 -0.3 C 89 % 1033.4 hPa 0.0 l/m 0.4 km/h (0 Bft) O 0.00 h 0 W/m -2.0 C -0.3 C 0.8 km/h (0 Bft)
21.10.2007 01:00 -0.3 C 87 % 1032.8 hPa 0.0 l/m 0.0 km/h (0 Bft) N 0.00 h 0 W/m -2.2 C -0.3 C 0.2 km/h (0 Bft)
21.10.2007 02:00 -0.7 C 90 % 1032.1 hPa 0.0 l/m 0.3 km/h (0 Bft) O 0.00 h 0 W/m -2.2 C -0.7 C 0.7 km/h (0 Bft)
21.10.2007 03:00 -0.4 C 90 % 1031.7 hPa 0.0 l/m 0.5 km/h (0 Bft) O 0.00 h 0 W/m -1.9 C -0.4 C 1.2 km/h (1 Bft)
21.10.2007 04:00 -0.4 C 90 % 1031.4 hPa 0.0 l/m 0.4 km/h (0 Bft) O 0.00 h 0 W/m -1.8 C -0.4 C 1.0 km/h (0 Bft)
21.10.2007 05:00 -0.1 C 91 % 1031.1 hPa 0.0 l/m 0.7 km/h (0 Bft) O 0.00 h 0 W/m -1.4 C -0.1 C 1.4 km/h (1 Bft)
21.10.2007 06:00 0.1 C 90 % 1030.9 hPa 0.0 l/m 0.4 km/h (0 Bft) O 0.00 h 0 W/m -1.3 C 0.1 C 0.8 km/h (0 Bft)
21.10.2007 07:00 0.5 C 91 % 1030.6 hPa 0.0 l/m 0.1 km/h (0 Bft) O-NO 0.00 h 0 W/m -0.7 C 0.5 C 0.6 km/h (0 Bft)
21.10.2007 08:00 0.7 C 90 % 1030.7 hPa 0.0 l/m 0.1 km/h (0 Bft) O-NO 0.00 h 20 W/m -0.6 C 0.7 C 0.5 km/h (0 Bft)
21.10.2007 09:00 1.6 C 88 % 1030.9 hPa 0.0 l/m 0.2 km/h (0 Bft) O-NO 0.00 h 55 W/m -0.1 C 1.6 C 0.9 km/h (0 Bft)
21.10.2007 10:00 2.7 C 86 % 1030.8 hPa 0.0 l/m 1.3 km/h (1 Bft) NW 0.00 h 97 W/m 0.5 C 2.6 C 3.1 km/h (1 Bft)
21.10.2007 11:00 3.5 C 86 % 1030.6 hPa 0.0 l/m 1.7 km/h (1 Bft) SO 0.00 h 176 W/m 1.3 C 3.4 C 4.3 km/h (1 Bft)
21.10.2007 12:00 4.3 C 80 % 1029.8 hPa 0.0 l/m 1.2 km/h (1 Bft) O-SO 0.03 h 163 W/m 1.2 C 4.3 C 2.9 km/h (1 Bft)
21.10.2007 13:00 5.1 C 75 % 1028.8 hPa 0.0 l/m 0.5 km/h (0 Bft) N-NO 0.22 h 256 W/m 1.2 C 5.1 C 1.7 km/h (1 Bft)
21.10.2007 14:00 6.6 C 68 % 1027.7 hPa 0.0 l/m 3.6 km/h (1 Bft) O-SO 0.67 h 378 W/m 1.1 C 6.2 C 6.4 km/h (2 Bft)
21.10.2007 15:00 6.3 C 68 % 1027.0 hPa 0.0 l/m 2.6 km/h (1 Bft) N-NW 0.00 h 87 W/m 0.9 C 6.2 C 4.8 km/h (1 Bft)
21.10.2007 16:00 5.9 C 72 % 1026.8 hPa 0.0 l/m 2.5 km/h (1 Bft) N-NW 0.00 h 48 W/m 1.2 C 5.7 C 4.4 km/h (1 Bft)
21.10.2007 17:00 5.5 C 75 % 1026.4 hPa 0.0 l/m 2.6 km/h (1 Bft) W-NW 0.00 h 28 W/m 1.4 C 5.4 C 4.6 km/h (1 Bft)
21.10.2007 18:00 5.0 C 77 % 1026.2 hPa 0.0 l/m 1.7 km/h (1 Bft) W-NW 0.00 h 8 W/m 1.4 C 5.0 C 3.2 km/h (1 Bft)
21.10.2007 19:00 4.7 C 78 % 1026.1 hPa 0.0 l/m 0.2 km/h (0 Bft) W-NW 0.00 h 0 W/m 1.2 C 4.7 C 0.9 km/h (0 Bft)
21.10.2007 20:00 4.7 C 80 % 1025.9 hPa 0.0 l/m 0.2 km/h (0 Bft) N 0.00 h 0 W/m 1.6 C 4.7 C 0.4 km/h (0 Bft)
21.10.2007 21:00 4.4 C 83 % 1025.7 hPa 0.0 l/m 0.6 km/h (0 Bft) O-NO 0.00 h 0 W/m 1.7 C 4.4 C 1.3 km/h (1 Bft)
21.10.2007 22:00 4.2 C 83 % 1025.4 hPa 0.0 l/m 0.5 km/h (0 Bft) O-NO 0.00 h 0 W/m 1.6 C 4.2 C 1.4 km/h (1 Bft)
21.10.2007 23:00 3.9 C 86 % 1025.2 hPa 0.0 l/m 1.5 km/h (1 Bft) O 0.00 h 0 W/m 1.8 C 3.8 C 2.7 km/h (1 Bft)
Min-Datum _ 21.10.07 19.10.07 17.10.07 - 15.10.07 - - - 20.10.07 20.10.07 15.10.07
_ Min-Zeit 02:17 15:36 17:15 - 00:03 - - - 14:15 23:24 00:11
Minimum _ -1.1 C 39 % 1018.4 hPa - 0.0 km/h (0 Bft) - - - -3.6 C -2.3 C 0.0 km/h (0 Bft)
Max-Datum _ 17.10.07 15.10.07 20.10.07 16.10.07 17.10.07 - 15.10.07 18.10.07 16.10.07 17.10.07 17.10.07
_ Max-Zeit 15:48 06:33 21:45 01:53 21:30 - 12:39 14:14 15:43 15:48 21:30
Maximum _ 19.9 C 100 % 1034.1 hPa 0.2 l/m 26.8 km/h
W (4 Bft)
- 0.02 h 712 W/m 13.4 C 19.9 C 38.2 km/h
W (5 Bft)
Durchschnitt _ 8.3 C 81 % 1026.4 hPa #0.6 l/m 2.2 km/h (1 Bft) O-SO #27:37 h 177 W/m 4.9 C 8.2 C 4.1 km/h (1 Bft)
© Kaiko 2007